25 septembre 2022

Temps Code Temps Temp. Vue Base cloud Vent METAR/SPECI
10:00 pm
M
54 °F 25 mi 1.400 ft 030° 030° 3 kt METAR CYMX 260200Z 03003KT 350V050 25SM BKN014 OVC090 12/11 A2954 RMK SC5AC3 SLP006 DENSITY ALT 500FT
9:54 pm
M
54 °F 25 mi 1.400 ft Var Var 2 kt METAR CYMX 260154Z VRB02KT 25SM BKN014 OVC090 12/11 A2954 RMK SC5AC3 SLP007 DENSITY ALT 400FT
9:00 pm
V
54 °F 20 mi 9.000 ft Var 000° 0 kt METAR CYMX 260100Z 00000KT 20SM -RA OVC090 12/11 A2954 RMK AC8 SLP008 DENSITY ALT 500FT
8:00 pm
V
54 °F 25 mi 9.000 ft Var 000° 0 kt METAR CYMX 260000Z 00000KT 25SM BKN090 12/11 A2955 RMK AC7 SLP010 DENSITY ALT 400FT
7:26 pm
V
55 °F 25 mi 9.000 ft Var 000° 0 kt METAR CYMX 252326Z 00000KT 25SM BKN090 13/11 A2955 RMK ACC7 SLP011 DENSITY ALT 500FT
7:00 pm
V
55 °F 25 mi 9.000 ft Var Var 2 kt METAR CYMX 252300Z VRB02KT 25SM -SHRA FEW060 BKN090 OVC120 13/11 A2956 RMK SC1ACC4AC3 SLP013 DENSITY ALT 500FT
6:00 pm
V
57 °F 25 mi 8.800 ft 140° 140° 4 kt METAR CYMX 252200Z 14004KT 100V170 25SM -SHRA FEW060 BKN088 OVC100 14/10 A2955 RMK SC1AC7AC1 SC TR CVCTV CLDS EMBD SLP012 DENSITY ALT 700FT
5:54 pm
V
59 °F 25 mi 8.300 ft 140° 140° 4 kt METAR CYMX 252154Z 14004KT 020V180 25SM FEW060 BKN083 OVC100 15/10 A2955 RMK SC1AC7AC1 SC TR CVCTV CLDS EMBD SLP012 DENSITY ALT 700FT
5:00 pm
V
61 °F 45 mi 6.000 ft Var Var 2 kt METAR CYMX 252100Z VRB02KT 45SM FEW030 BKN060 OVC100 16/10 A2956 RMK CU1SC7AC1 CU TR SLP012 DENSITY ALT 900FT
4:00 pm
V
61 °F 45 mi 5.800 ft 130° 130° 3 kt METAR CYMX 252000Z 13003KT 100V190 45SM FEW030 BKN058 OVC100 16/10 A2957 RMK CU1SC7AC1 CU TR SLP016 DENSITY ALT 900FT
3:00 pm
V
61 °F 45 mi 6.000 ft 160° 160° 5 kt METAR CYMX 251900Z 16005KT 110V190 45SM FEW030 BKN060 OVC100 16/10 A2958 RMK CU2SC4AC2 SLP021 DENSITY ALT 900FT
2:00 pm
M
63 °F 45 mi 2.800 ft 140° 140° 4 kt METAR CYMX 251800Z 14004KT 110V190 45SM BKN028 BKN084 BKN150 BKN250 17/10 A2960 RMK CU5AC2AC1CI1 AC TR CI TR SLP027 DENSITY ALT 900FT
1:00 pm
V
63 °F 45 mi 25.000 ft 190° 190° 5 kt METAR CYMX 251700Z 19005KT 110V220 45SM FEW040 SCT075 SCT150 BKN250 17/10 A2963 RMK CU2AC1AC1CI3 SLP036 DENSITY ALT 900FT
12:00 pm
V
61 °F 25 mi 9.100 ft Var 000° 0 kt METAR CYMX 251600Z 00000KT 25SM FEW030 BKN091 BKN150 BKN250 16/11 A2964 RMK CU1AC5AC2CI1 CU TR CI TR SLP042 DENSITY ALT 800FT
11:00 am
V
57 °F 45 mi 9.400 ft 210° 210° 4 kt METAR CYMX 251500Z 21004KT 180V280 45SM BKN094 BKN150 14/10 A2967 RMK AC6AC1 SLP050 DENSITY ALT 500FT
10:00 am
V
54 °F 45 mi 9.000 ft Var Var 2 kt METAR CYMX 251400Z VRB02KT 45SM FEW020 BKN090 OVC140 12/10 A2968 RMK CU1AC6AC2 CU TR SLP055 DENSITY ALT 300FT
9:00 am
V
52 °F 45 mi 6.000 ft 270° 270° 3 kt METAR CYMX 251300Z 27003KT 220V300 45SM BKN060 OVC130 11/10 A2970 RMK SC5AC3 SLP060
8:00 am
V
50 °F 45 mi 9.900 ft 220° 220° 3 kt METAR CYMX 251200Z 22003KT 180V250 45SM FEW020 BKN099 OVC120 10/09 A2971 RMK CU1AC7AC1 CU TR SLP063
7:00 am
V
48 °F 45 mi 10.000 ft Var Var 2 kt METAR CYMX 251100Z VRB02KT 45SM BKN100 OVC130 09/08 A2971 RMK AC6AC2 SLP065
6:00 am
V
48 °F 25 mi 12.000 ft 260° 260° 3 kt METAR CYMX 251000Z 26003KT 220V290 25SM BKN120 09/08 A2972 RMK AC7 SLP066
5:00 am
V
48 °F 25 mi 16.000 ft 270° 270° 4 kt METAR CYMX 250900Z 27004KT 250V310 25SM BKN160 09/08 A2973 RMK AC6 SLP071
4:00 am
V
48 °F 25 mi 15.000 ft 250° 250° 3 kt METAR CYMX 250800Z 25003KT 25SM BKN150 09/08 A2974 RMK AC5 SLP073
3:00 am
V
48 °F 25 mi 21.000 ft 220° 220° 5 kt METAR CYMX 250700Z 22005KT 25SM BKN210 09/08 A2976 RMK CI5 SLP081
2:00 am
V
48 °F 25 mi - 240° 240° 3 kt METAR CYMX 250600Z 24003KT 200V290 25SM SCT210 09/07 A2977 RMK CI3 SLP085
1:00 am
V
50 °F 25 mi - 260° 260° 3 kt METAR CYMX 250500Z 26003KT 160V300 25SM FEW210 10/08 A2978 RMK CI1 SLP088
12:00 am
V
50 °F 25 mi - 250° 250° 3 kt METAR CYMX 250400Z 25003KT 25SM FEW120 10/07 A2979 RMK AC1 AC TR SLP090

24 septembre 2022

Temps Code Temps Temp. Vue Base cloud Vent METAR/SPECI
11:00 pm
V
52 °F 25 mi - 250° 250° 3 kt METAR CYMX 250300Z 25003KT 25SM SKC 11/07 A2979 RMK SLP091
10:00 pm
V
52 °F 25 mi - 250° 250° 3 kt METAR CYMX 250200Z 25003KT 25SM SKC 11/08 A2980 RMK SLP094
9:00 pm
V
54 °F 25 mi - 230° 230° 3 kt METAR CYMX 250100Z 23003KT 190V270 25SM SKC 12/08 A2980 RMK SLP095
8:00 pm
V
54 °F 25 mi - Var Var 2 kt METAR CYMX 250000Z VRB02KT 25SM FEW080 12/07 A2980 RMK AC1 AC TR SLP094
7:18 pm
V
55 °F 45 mi - Var Var 2 kt METAR CYMX 242318Z VRB02KT 45SM VCFG FEW002 FEW080 FEW250 13/07 A2980 RMK FU1AC1CI1 FU TR CI TR FG N SLP095 DENSITY ALT 300FT
7:00 pm
V
59 °F 45 mi - Var 000° 0 kt METAR CYMX 242300Z 00000KT 45SM FEW080 FEW250 15/07 A2980 RMK AC1CI1 CI TR SLP096 DENSITY ALT 500FT
6:00 pm
V
63 °F 45 mi - 270° 270° 4 kt METAR CYMX 242200Z 27004KT 220V320 45SM FEW060 17/07 A2981 RMK SC1 SC TR SLP099 DENSITY ALT 700FT
5:00 pm
V
64 °F 45 mi - 280° 280° 5 kt METAR CYMX 242100Z 28005KT 240V350 45SM FEW060 FEW250 18/07 A2982 RMK SC1CI1 SC TR CI TR SLP102 DENSITY ALT 900FT
4:00 pm
V
64 °F 45 mi - 270° 270° 5 - 16 kt METAR CYMX 242000Z 27005G16KT 240V340 45SM FEW060 FEW250 18/07 A2983 RMK CU1CI1 CU TR CI TR SLP106 DENSITY ALT 900FT
3:00 pm
V
64 °F 45 mi - 310° 310° 7 kt METAR CYMX 241900Z 31007KT 240V340 45SM FEW060 18/07 A2986 RMK SC2 SLP114 DENSITY ALT 800FT
2:00 pm
V
64 °F 45 mi - 290° 290° 9 - 17 kt METAR CYMX 241800Z 29009G17KT 230V350 45SM SCT055 18/06 A2988 RMK SC3 SLP121 DENSITY ALT 800FT
1:00 pm
V
63 °F 45 mi - 300° 300° 6 - 16 kt METAR CYMX 241700Z 30006G16KT 250V350 45SM FEW050 17/07 A2990 RMK CU2 SLP129 DENSITY ALT 700FT
12:00 pm
V
63 °F 45 mi - 270° 270° 7 - 17 kt METAR CYMX 241600Z 27007G17KT 210V340 45SM FEW050 FEW250 17/07 A2991 RMK CU1CI1 CU TR CI TR SLP132 DENSITY ALT 600FT
11:00 am
V
57 °F 45 mi - 260° 260° 5 kt METAR CYMX 241500Z 26005KT 210V290 45SM FEW050 FEW250 14/07 A2994 RMK SC1CI1 SC TR CI TR SLP142 DENSITY ALT 300FT
10:00 am
V
54 °F 45 mi - 260° 260° 6 kt METAR CYMX 241400Z 26006KT 220V300 45SM FEW050 FEW250 12/06 A2995 RMK SC1CI1 SC TR CI TR SLP147
9:00 am
V
46 °F 45 mi - 260° 260° 5 kt METAR CYMX 241300Z 26005KT 220V300 45SM FEW250 08/05 A2996 RMK CI1 CI TR SLP149
8:00 am
V
43 °F 45 mi - 260° 260° 6 kt METAR CYMX 241200Z 26006KT 230V300 45SM FEW250 06/04 A2996 RMK CI1 CI TR SLP150
7:00 am
V
41 °F 45 mi - 260° 260° 6 kt METAR CYMX 241100Z 26006KT 220V300 45SM FEW250 05/04 A2996 RMK CI1 CI TR SLP151
6:00 am
V
41 °F 25 mi - 270° 270° 7 kt METAR CYMX 241000Z 27007KT 230V300 25SM FEW150 05/03 A2997 RMK AC1 SLP152
5:00 am
V
39 °F 25 mi - 250° 250° 4 kt METAR CYMX 240900Z 25004KT 25SM SKC 04/03 A2995 RMK SLP147
4:00 am
V
39 °F 25 mi - 260° 260° 4 kt METAR CYMX 240800Z 26004KT 25SM SKC 04/03 A2996 RMK SLP150
3:00 am
V
39 °F 25 mi - 260° 260° 6 kt METAR CYMX 240700Z 26006KT 25SM SKC 04/03 A2997 RMK SLP154
2:00 am
V
41 °F 25 mi - 270° 270° 5 kt METAR CYMX 240600Z 27005KT 25SM SKC 05/03 A2999 RMK SLP159
1:00 am
V
41 °F 25 mi - 230° 230° 4 kt METAR CYMX 240500Z 23004KT 25SM SKC 05/03 A2999 RMK SLP160
12:00 am
V
45 °F 25 mi - 250° 250° 4 kt METAR CYMX 240400Z 25004KT 200V280 25SM SKC 07/02 A3000 RMK SLP163

23 septembre 2022

Temps Code Temps Temp. Vue Base cloud Vent METAR/SPECI
11:00 pm
V
45 °F 25 mi - 270° 270° 5 kt METAR CYMX 240300Z 27005KT 25SM SKC 07/03 A3000 RMK SLP162
10:00 pm
V
43 °F 25 mi - 230° 230° 4 kt METAR CYMX 240200Z 23004KT 25SM SKC 06/03 A3000 RMK SLP162
9:00 pm
V
45 °F 25 mi - 260° 260° 4 kt METAR CYMX 240100Z 26004KT 230V300 25SM SKC 07/03 A2999 RMK SLP161
8:00 pm
V
46 °F 25 mi - 260° 260° 5 kt METAR CYMX 240000Z 26005KT 190V300 25SM SKC 08/03 A3000 RMK SLP163
7:00 pm
V
50 °F 45 mi - 300° 300° 4 kt METAR CYMX 232300Z 30004KT 240V350 45SM FEW050 10/02 A2999 RMK SC1 SLP161
6:00 pm
V
52 °F 45 mi - 310° 310° 5 kt METAR CYMX 232200Z 31005KT 270V350 45SM FEW050 11/02 A2998 RMK SC1 SC TR SLP158
5:00 pm
V
54 °F 45 mi - 300° 300° 8 - 15 kt METAR CYMX 232100Z 30008G15KT 260V350 45SM FEW040 12/01 A2996 RMK SC1 SC TR SLP150
4:00 pm
V
55 °F 45 mi - 330° 330° 13 - 19 kt METAR CYMX 232000Z 33013G19KT 260V350 45SM FEW040 13/01 A2996 RMK SC1 SC TR SLP149
Données plus anciennes

Nous et des tiers suivons ton comportement sur Internet sur notre site Web à l'aide de cookies. Si tu continues, nous supposons que tu acceptes notre politique en matière de cookies. Apprendre plus